sensor_id;sensor_type;location;lat;lon;timestamp;P1;durP1;ratioP1;P2;durP2;ratioP2
49854;SDS011;35752;52.164;21.244;2023-01-20T00:02:10;53.72;;;31.02;;
49854;SDS011;35752;52.164;21.244;2023-01-20T00:04:36;50.92;;;28.63;;
49854;SDS011;35752;52.164;21.244;2023-01-20T00:07:01;50.10;;;29.80;;
49854;SDS011;35752;52.164;21.244;2023-01-20T00:09:27;49.30;;;29.95;;
49854;SDS011;35752;52.164;21.244;2023-01-20T00:11:53;57.33;;;29.98;;
49854;SDS011;35752;52.164;21.244;2023-01-20T00:14:18;50.70;;;29.65;;
49854;SDS011;35752;52.164;21.244;2023-01-20T00:16:45;53.25;;;30.73;;
49854;SDS011;35752;52.164;21.244;2023-01-20T00:19:13;51.70;;;30.40;;
49854;SDS011;35752;52.164;21.244;2023-01-20T00:21:39;47.70;;;28.45;;
49854;SDS011;35752;52.164;21.244;2023-01-20T00:24:05;52.33;;;30.45;;
49854;SDS011;35752;52.164;21.244;2023-01-20T00:26:31;51.47;;;30.38;;
49854;SDS011;35752;52.164;21.244;2023-01-20T00:28:57;47.63;;;29.10;;
49854;SDS011;35752;52.164;21.244;2023-01-20T00:33:53;51.67;;;27.63;;
49854;SDS011;35752;52.164;21.244;2023-01-20T00:36:21;46.80;;;29.23;;
49854;SDS011;35752;52.164;21.244;2023-01-20T00:38:47;48.60;;;28.02;;
49854;SDS011;35752;52.164;21.244;2023-01-20T00:41:13;51.15;;;29.27;;
49854;SDS011;35752;52.164;21.244;2023-01-20T00:43:39;51.28;;;29.45;;
49854;SDS011;35752;52.164;21.244;2023-01-20T00:46:05;51.03;;;30.95;;
49854;SDS011;35752;52.164;21.244;2023-01-20T00:48:31;48.00;;;28.60;;
49854;SDS011;35752;52.164;21.244;2023-01-20T00:50:57;46.58;;;29.33;;
49854;SDS011;35752;52.164;21.244;2023-01-20T00:53:23;50.10;;;30.67;;
49854;SDS011;35752;52.164;21.244;2023-01-20T00:55:49;52.03;;;31.35;;
49854;SDS011;35752;52.164;21.244;2023-01-20T00:58:15;57.25;;;32.67;;
49854;SDS011;35752;52.164;21.244;2023-01-20T01:00:41;54.47;;;30.73;;
49854;SDS011;35752;52.164;21.244;2023-01-20T01:03:07;56.58;;;32.22;;
49854;SDS011;35752;52.164;21.244;2023-01-20T01:05:34;56.58;;;31.63;;
49854;SDS011;35752;52.164;21.244;2023-01-20T01:08:00;59.78;;;31.83;;
49854;SDS011;35752;52.164;21.244;2023-01-20T01:10:26;61.65;;;33.75;;
49854;SDS011;35752;52.164;21.244;2023-01-20T01:12:51;60.15;;;31.83;;
49854;SDS011;35752;52.164;21.244;2023-01-20T01:15:17;57.95;;;32.00;;
49854;SDS011;35752;52.164;21.244;2023-01-20T01:17:43;58.47;;;31.55;;
49854;SDS011;35752;52.164;21.244;2023-01-20T01:20:11;57.17;;;31.38;;
49854;SDS011;35752;52.164;21.244;2023-01-20T01:22:38;58.50;;;31.65;;
49854;SDS011;35752;52.164;21.244;2023-01-20T01:25:04;55.47;;;32.22;;
49854;SDS011;35752;52.164;21.244;2023-01-20T01:27:30;54.63;;;30.98;;
49854;SDS011;35752;52.164;21.244;2023-01-20T01:29:56;56.40;;;31.48;;
49854;SDS011;35752;52.164;21.244;2023-01-20T01:32:22;60.35;;;32.65;;
49854;SDS011;35752;52.164;21.244;2023-01-20T01:34:47;52.67;;;29.90;;
49854;SDS011;35752;52.164;21.244;2023-01-20T01:37:13;50.42;;;29.20;;
49854;SDS011;35752;52.164;21.244;2023-01-20T01:39:39;54.50;;;30.48;;
49854;SDS011;35752;52.164;21.244;2023-01-20T01:42:15;56.20;;;30.83;;
49854;SDS011;35752;52.164;21.244;2023-01-20T01:49:59;54.92;;;31.00;;
49854;SDS011;35752;52.164;21.244;2023-01-20T01:52:25;56.72;;;30.35;;
49854;SDS011;35752;52.164;21.244;2023-01-20T01:54:51;49.97;;;29.10;;
49854;SDS011;35752;52.164;21.244;2023-01-20T01:57:17;54.85;;;29.75;;
49854;SDS011;35752;52.164;21.244;2023-01-20T01:59:43;53.88;;;29.77;;
49854;SDS011;35752;52.164;21.244;2023-01-20T02:02:09;52.80;;;29.88;;
49854;SDS011;35752;52.164;21.244;2023-01-20T02:04:35;46.08;;;27.48;;
49854;SDS011;35752;52.164;21.244;2023-01-20T02:07:10;54.45;;;29.65;;
49854;SDS011;35752;52.164;21.244;2023-01-20T02:09:39;47.78;;;28.73;;
49854;SDS011;35752;52.164;21.244;2023-01-20T02:12:06;49.50;;;28.80;;
49854;SDS011;35752;52.164;21.244;2023-01-20T02:14:39;53.00;;;29.23;;
49854;SDS011;35752;52.164;21.244;2023-01-20T02:17:30;54.80;;;30.13;;
49854;SDS011;35752;52.164;21.244;2023-01-20T02:33:27;58.30;;;29.98;;
49854;SDS011;35752;52.164;21.244;2023-01-20T02:36:44;61.17;;;31.85;;
49854;SDS011;35752;52.164;21.244;2023-01-20T02:44:15;64.28;;;33.78;;
49854;SDS011;35752;52.164;21.244;2023-01-20T02:51:53;66.60;;;31.48;;
49854;SDS011;35752;52.164;21.244;2023-01-20T02:54:24;63.58;;;32.03;;
49854;SDS011;35752;52.164;21.244;2023-01-20T02:59:25;65.72;;;31.80;;
49854;SDS011;35752;52.164;21.244;2023-01-20T03:01:59;66.13;;;32.42;;
49854;SDS011;35752;52.164;21.244;2023-01-20T03:04:35;69.07;;;32.63;;
49854;SDS011;35752;52.164;21.244;2023-01-20T03:07:05;60.22;;;31.05;;
49854;SDS011;35752;52.164;21.244;2023-01-20T03:09:36;61.63;;;32.00;;
49854;SDS011;35752;52.164;21.244;2023-01-20T03:14:48;67.45;;;31.45;;
49854;SDS011;35752;52.164;21.244;2023-01-20T03:17:16;62.63;;;30.52;;
49854;SDS011;35752;52.164;21.244;2023-01-20T03:19:46;65.90;;;31.30;;
49854;SDS011;35752;52.164;21.244;2023-01-20T03:22:11;61.85;;;31.10;;
49854;SDS011;35752;52.164;21.244;2023-01-20T03:24:37;63.97;;;30.80;;
49854;SDS011;35752;52.164;21.244;2023-01-20T03:27:05;61.28;;;30.23;;
49854;SDS011;35752;52.164;21.244;2023-01-20T03:29:31;63.00;;;28.92;;
49854;SDS011;35752;52.164;21.244;2023-01-20T03:31:57;63.60;;;31.50;;
49854;SDS011;35752;52.164;21.244;2023-01-20T03:34:26;69.13;;;30.98;;
49854;SDS011;35752;52.164;21.244;2023-01-20T03:36:54;62.30;;;31.90;;
49854;SDS011;35752;52.164;21.244;2023-01-20T03:39:21;68.13;;;33.53;;
49854;SDS011;35752;52.164;21.244;2023-01-20T03:47:34;60.55;;;29.58;;
49854;SDS011;35752;52.164;21.244;2023-01-20T03:50:35;66.28;;;31.58;;
49854;SDS011;35752;52.164;21.244;2023-01-20T03:56:06;63.75;;;31.48;;
49854;SDS011;35752;52.164;21.244;2023-01-20T03:58:39;63.03;;;31.23;;
49854;SDS011;35752;52.164;21.244;2023-01-20T04:01:07;63.33;;;31.55;;
49854;SDS011;35752;52.164;21.244;2023-01-20T04:03:39;68.82;;;31.15;;
49854;SDS011;35752;52.164;21.244;2023-01-20T04:06:10;74.15;;;33.08;;
49854;SDS011;35752;52.164;21.244;2023-01-20T04:08:40;65.57;;;31.90;;
49854;SDS011;35752;52.164;21.244;2023-01-20T04:11:11;65.22;;;32.95;;
49854;SDS011;35752;52.164;21.244;2023-01-20T04:13:36;72.25;;;31.40;;
49854;SDS011;35752;52.164;21.244;2023-01-20T04:16:08;69.22;;;33.05;;
49854;SDS011;35752;52.164;21.244;2023-01-20T04:18:41;70.82;;;32.67;;
49854;SDS011;35752;52.164;21.244;2023-01-20T04:21:11;70.90;;;32.60;;
49854;SDS011;35752;52.164;21.244;2023-01-20T04:23:49;70.95;;;33.20;;
49854;SDS011;35752;52.164;21.244;2023-01-20T04:26:22;72.82;;;32.22;;
49854;SDS011;35752;52.164;21.244;2023-01-20T04:28:48;71.88;;;32.22;;
49854;SDS011;35752;52.164;21.244;2023-01-20T04:31:13;64.97;;;30.65;;
49854;SDS011;35752;52.164;21.244;2023-01-20T04:33:39;70.78;;;32.00;;
49854;SDS011;35752;52.164;21.244;2023-01-20T04:36:05;71.65;;;32.40;;
49854;SDS011;35752;52.164;21.244;2023-01-20T04:38:31;68.80;;;31.15;;
49854;SDS011;35752;52.164;21.244;2023-01-20T04:40:57;76.88;;;34.78;;
49854;SDS011;35752;52.164;21.244;2023-01-20T04:43:22;76.03;;;31.77;;
49854;SDS011;35752;52.164;21.244;2023-01-20T04:45:48;72.43;;;33.90;;
49854;SDS011;35752;52.164;21.244;2023-01-20T04:48:14;78.78;;;34.53;;
49854;SDS011;35752;52.164;21.244;2023-01-20T04:50:40;75.18;;;34.53;;
49854;SDS011;35752;52.164;21.244;2023-01-20T04:53:06;75.72;;;33.55;;
49854;SDS011;35752;52.164;21.244;2023-01-20T04:55:35;71.35;;;31.08;;
49854;SDS011;35752;52.164;21.244;2023-01-20T04:58:01;74.53;;;32.03;;
49854;SDS011;35752;52.164;21.244;2023-01-20T05:00:26;64.65;;;29.73;;
49854;SDS011;35752;52.164;21.244;2023-01-20T05:02:55;71.18;;;32.80;;
49854;SDS011;35752;52.164;21.244;2023-01-20T05:05:22;68.03;;;29.27;;
49854;SDS011;35752;52.164;21.244;2023-01-20T05:07:50;63.95;;;29.30;;
49854;SDS011;35752;52.164;21.244;2023-01-20T05:10:17;65.05;;;31.00;;
49854;SDS011;35752;52.164;21.244;2023-01-20T05:12:43;73.88;;;31.42;;
49854;SDS011;35752;52.164;21.244;2023-01-20T05:15:08;73.88;;;31.58;;
49854;SDS011;35752;52.164;21.244;2023-01-20T05:17:34;67.45;;;29.60;;
49854;SDS011;35752;52.164;21.244;2023-01-20T05:20:00;65.90;;;30.40;;
49854;SDS011;35752;52.164;21.244;2023-01-20T05:22:26;62.80;;;29.35;;
49854;SDS011;35752;52.164;21.244;2023-01-20T05:24:52;66.22;;;30.13;;
49854;SDS011;35752;52.164;21.244;2023-01-20T05:27:18;69.60;;;30.48;;
49854;SDS011;35752;52.164;21.244;2023-01-20T05:29:43;65.25;;;29.90;;
49854;SDS011;35752;52.164;21.244;2023-01-20T05:32:09;68.72;;;29.73;;
49854;SDS011;35752;52.164;21.244;2023-01-20T05:34:35;61.45;;;28.35;;
49854;SDS011;35752;52.164;21.244;2023-01-20T05:37:00;62.28;;;29.30;;
49854;SDS011;35752;52.164;21.244;2023-01-20T05:39:26;64.32;;;29.40;;
49854;SDS011;35752;52.164;21.244;2023-01-20T05:41:52;63.42;;;29.27;;
49854;SDS011;35752;52.164;21.244;2023-01-20T05:44:17;57.90;;;28.10;;
49854;SDS011;35752;52.164;21.244;2023-01-20T05:46:43;62.53;;;28.60;;
49854;SDS011;35752;52.164;21.244;2023-01-20T05:49:09;63.15;;;29.05;;
49854;SDS011;35752;52.164;21.244;2023-01-20T05:51:36;58.80;;;26.63;;
49854;SDS011;35752;52.164;21.244;2023-01-20T05:54:02;57.83;;;28.50;;
49854;SDS011;35752;52.164;21.244;2023-01-20T05:56:28;57.22;;;27.98;;
49854;SDS011;35752;52.164;21.244;2023-01-20T05:58:54;48.15;;;24.83;;
49854;SDS011;35752;52.164;21.244;2023-01-20T06:01:20;55.13;;;26.00;;
49854;SDS011;35752;52.164;21.244;2023-01-20T06:03:46;57.03;;;26.55;;
49854;SDS011;35752;52.164;21.244;2023-01-20T06:06:11;53.92;;;25.95;;
49854;SDS011;35752;52.164;21.244;2023-01-20T06:08:42;52.53;;;27.27;;
49854;SDS011;35752;52.164;21.244;2023-01-20T06:11:08;49.65;;;25.83;;
49854;SDS011;35752;52.164;21.244;2023-01-20T06:13:34;48.63;;;24.77;;
49854;SDS011;35752;52.164;21.244;2023-01-20T06:16:00;48.40;;;26.05;;
49854;SDS011;35752;52.164;21.244;2023-01-20T06:18:25;52.53;;;26.35;;
49854;SDS011;35752;52.164;21.244;2023-01-20T06:20:55;55.80;;;26.25;;
49854;SDS011;35752;52.164;21.244;2023-01-20T06:23:21;47.45;;;23.98;;
49854;SDS011;35752;52.164;21.244;2023-01-20T06:25:47;50.78;;;25.45;;
49854;SDS011;35752;52.164;21.244;2023-01-20T06:28:13;51.03;;;26.10;;
49854;SDS011;35752;52.164;21.244;2023-01-20T06:30:38;48.78;;;25.73;;
49854;SDS011;35752;52.164;21.244;2023-01-20T06:33:07;51.55;;;25.77;;
49854;SDS011;35752;52.164;21.244;2023-01-20T06:35:35;45.75;;;23.95;;
49854;SDS011;35752;52.164;21.244;2023-01-20T06:38:01;43.35;;;23.70;;
49854;SDS011;35752;52.164;21.244;2023-01-20T06:40:27;48.80;;;24.77;;
49854;SDS011;35752;52.164;21.244;2023-01-20T06:42:52;47.65;;;23.80;;
49854;SDS011;35752;52.164;21.244;2023-01-20T06:45:18;50.30;;;26.10;;
49854;SDS011;35752;52.164;21.244;2023-01-20T06:47:47;51.80;;;25.88;;
49854;SDS011;35752;52.164;21.244;2023-01-20T06:50:13;52.72;;;26.73;;
49854;SDS011;35752;52.164;21.244;2023-01-20T06:52:39;52.95;;;26.48;;
49854;SDS011;35752;52.164;21.244;2023-01-20T06:55:05;52.15;;;26.00;;
49854;SDS011;35752;52.164;21.244;2023-01-20T06:57:31;49.90;;;24.90;;
49854;SDS011;35752;52.164;21.244;2023-01-20T06:59:57;47.53;;;25.10;;
49854;SDS011;35752;52.164;21.244;2023-01-20T07:02:23;55.53;;;25.58;;
49854;SDS011;35752;52.164;21.244;2023-01-20T07:04:52;50.47;;;24.88;;
49854;SDS011;35752;52.164;21.244;2023-01-20T07:07:18;53.78;;;27.23;;
49854;SDS011;35752;52.164;21.244;2023-01-20T07:09:43;61.05;;;28.48;;
49854;SDS011;35752;52.164;21.244;2023-01-20T07:12:09;50.15;;;25.13;;
49854;SDS011;35752;52.164;21.244;2023-01-20T07:14:34;50.90;;;26.00;;
49854;SDS011;35752;52.164;21.244;2023-01-20T07:17:00;49.65;;;26.42;;
49854;SDS011;35752;52.164;21.244;2023-01-20T07:19:26;49.38;;;25.90;;
49854;SDS011;35752;52.164;21.244;2023-01-20T07:21:51;50.38;;;25.27;;
49854;SDS011;35752;52.164;21.244;2023-01-20T07:24:17;45.92;;;23.75;;
49854;SDS011;35752;52.164;21.244;2023-01-20T07:26:43;49.60;;;26.25;;
49854;SDS011;35752;52.164;21.244;2023-01-20T07:29:08;53.38;;;25.65;;
49854;SDS011;35752;52.164;21.244;2023-01-20T07:31:34;52.63;;;26.65;;
49854;SDS011;35752;52.164;21.244;2023-01-20T07:34:00;52.97;;;25.80;;
49854;SDS011;35752;52.164;21.244;2023-01-20T07:36:25;47.55;;;25.30;;
49854;SDS011;35752;52.164;21.244;2023-01-20T07:38:51;52.22;;;24.85;;
49854;SDS011;35752;52.164;21.244;2023-01-20T07:41:18;54.30;;;26.85;;
49854;SDS011;35752;52.164;21.244;2023-01-20T07:43:45;52.55;;;25.40;;
49854;SDS011;35752;52.164;21.244;2023-01-20T07:46:12;51.65;;;26.08;;
49854;SDS011;35752;52.164;21.244;2023-01-20T07:48:38;64.82;;;29.40;;
49854;SDS011;35752;52.164;21.244;2023-01-20T07:51:05;73.38;;;37.95;;
49854;SDS011;35752;52.164;21.244;2023-01-20T07:53:33;56.95;;;30.02;;
49854;SDS011;35752;52.164;21.244;2023-01-20T07:56:04;64.97;;;31.67;;
49854;SDS011;35752;52.164;21.244;2023-01-20T07:58:32;49.28;;;26.08;;
49854;SDS011;35752;52.164;21.244;2023-01-20T08:01:05;52.67;;;27.42;;
49854;SDS011;35752;52.164;21.244;2023-01-20T08:03:36;60.63;;;32.25;;
49854;SDS011;35752;52.164;21.244;2023-01-20T08:06:02;65.10;;;30.42;;
49854;SDS011;35752;52.164;21.244;2023-01-20T08:08:30;83.43;;;40.20;;
49854;SDS011;35752;52.164;21.244;2023-01-20T08:10:56;87.47;;;44.33;;
49854;SDS011;35752;52.164;21.244;2023-01-20T08:13:23;121.40;;;68.93;;
49854;SDS011;35752;52.164;21.244;2023-01-20T08:15:48;72.60;;;37.90;;
49854;SDS011;35752;52.164;21.244;2023-01-20T08:18:14;73.43;;;35.42;;
49854;SDS011;35752;52.164;21.244;2023-01-20T08:20:40;77.70;;;43.88;;
49854;SDS011;35752;52.164;21.244;2023-01-20T08:23:06;72.60;;;40.08;;
49854;SDS011;35752;52.164;21.244;2023-01-20T08:25:31;63.10;;;31.58;;
49854;SDS011;35752;52.164;21.244;2023-01-20T08:27:57;68.15;;;31.85;;
49854;SDS011;35752;52.164;21.244;2023-01-20T08:30:23;69.43;;;33.08;;
49854;SDS011;35752;52.164;21.244;2023-01-20T08:32:48;71.95;;;31.70;;
49854;SDS011;35752;52.164;21.244;2023-01-20T08:35:14;62.72;;;30.88;;
49854;SDS011;35752;52.164;21.244;2023-01-20T08:37:40;65.75;;;30.40;;
49854;SDS011;35752;52.164;21.244;2023-01-20T08:40:06;66.28;;;31.77;;
49854;SDS011;35752;52.164;21.244;2023-01-20T08:42:34;64.30;;;29.98;;
49854;SDS011;35752;52.164;21.244;2023-01-20T08:45:00;58.92;;;29.95;;
49854;SDS011;35752;52.164;21.244;2023-01-20T08:47:25;63.03;;;31.05;;
49854;SDS011;35752;52.164;21.244;2023-01-20T08:49:52;68.57;;;33.47;;
49854;SDS011;35752;52.164;21.244;2023-01-20T08:52:18;64.25;;;30.52;;
49854;SDS011;35752;52.164;21.244;2023-01-20T08:54:43;62.78;;;30.75;;
49854;SDS011;35752;52.164;21.244;2023-01-20T08:57:09;72.65;;;31.98;;
49854;SDS011;35752;52.164;21.244;2023-01-20T08:59:35;68.70;;;28.85;;
49854;SDS011;35752;52.164;21.244;2023-01-20T09:02:01;60.70;;;27.90;;
49854;SDS011;35752;52.164;21.244;2023-01-20T09:04:27;58.33;;;28.60;;
49854;SDS011;35752;52.164;21.244;2023-01-20T09:06:52;61.63;;;29.02;;
49854;SDS011;35752;52.164;21.244;2023-01-20T09:09:20;55.22;;;26.95;;
49854;SDS011;35752;52.164;21.244;2023-01-20T09:11:47;57.63;;;26.70;;
49854;SDS011;35752;52.164;21.244;2023-01-20T09:14:17;57.72;;;24.95;;
49854;SDS011;35752;52.164;21.244;2023-01-20T09:16:43;55.08;;;25.55;;
49854;SDS011;35752;52.164;21.244;2023-01-20T09:19:09;56.78;;;25.13;;
49854;SDS011;35752;52.164;21.244;2023-01-20T09:21:35;63.75;;;25.85;;
49854;SDS011;35752;52.164;21.244;2023-01-20T09:24:00;56.80;;;25.35;;
49854;SDS011;35752;52.164;21.244;2023-01-20T09:26:26;54.83;;;24.17;;
49854;SDS011;35752;52.164;21.244;2023-01-20T09:28:52;53.38;;;24.17;;
49854;SDS011;35752;52.164;21.244;2023-01-20T09:31:17;54.97;;;24.63;;
49854;SDS011;35752;52.164;21.244;2023-01-20T09:33:44;58.33;;;24.02;;
49854;SDS011;35752;52.164;21.244;2023-01-20T09:36:09;51.45;;;21.48;;
49854;SDS011;35752;52.164;21.244;2023-01-20T09:38:36;56.83;;;26.02;;
49854;SDS011;35752;52.164;21.244;2023-01-20T09:41:30;53.53;;;23.92;;
49854;SDS011;35752;52.164;21.244;2023-01-20T09:46:49;51.40;;;23.48;;
49854;SDS011;35752;52.164;21.244;2023-01-20T09:49:40;55.42;;;23.60;;
49854;SDS011;35752;52.164;21.244;2023-01-20T09:52:37;62.73;;;26.57;;
49854;SDS011;35752;52.164;21.244;2023-01-20T09:57:55;59.72;;;25.38;;
49854;SDS011;35752;52.164;21.244;2023-01-20T10:00:29;66.18;;;27.00;;
49854;SDS011;35752;52.164;21.244;2023-01-20T10:03:15;60.22;;;28.00;;
49854;SDS011;35752;52.164;21.244;2023-01-20T10:05:45;65.30;;;27.13;;
49854;SDS011;35752;52.164;21.244;2023-01-20T10:08:16;78.03;;;26.98;;
49854;SDS011;35752;52.164;21.244;2023-01-20T10:11:09;62.80;;;26.88;;
49854;SDS011;35752;52.164;21.244;2023-01-20T10:13:40;66.57;;;28.35;;
49854;SDS011;35752;52.164;21.244;2023-01-20T10:16:11;62.42;;;28.27;;
49854;SDS011;35752;52.164;21.244;2023-01-20T10:18:54;66.50;;;29.27;;
49854;SDS011;35752;52.164;21.244;2023-01-20T10:21:27;67.30;;;27.80;;
49854;SDS011;35752;52.164;21.244;2023-01-20T10:23:59;63.97;;;28.42;;
49854;SDS011;35752;52.164;21.244;2023-01-20T10:29:18;57.65;;;26.65;;
49854;SDS011;35752;52.164;21.244;2023-01-20T10:32:01;57.30;;;28.88;;
49854;SDS011;35752;52.164;21.244;2023-01-20T10:34:41;60.83;;;26.85;;
49854;SDS011;35752;52.164;21.244;2023-01-20T10:37:10;59.63;;;25.55;;
49854;SDS011;35752;52.164;21.244;2023-01-20T10:39:41;55.17;;;26.27;;
49854;SDS011;35752;52.164;21.244;2023-01-20T10:42:32;53.67;;;25.90;;
49854;SDS011;35752;52.164;21.244;2023-01-20T10:44:58;57.17;;;27.30;;
49854;SDS011;35752;52.164;21.244;2023-01-20T10:47:45;54.97;;;25.70;;
49854;SDS011;35752;52.164;21.244;2023-01-20T10:50:40;58.03;;;26.00;;
49854;SDS011;35752;52.164;21.244;2023-01-20T10:53:20;51.67;;;27.30;;
49854;SDS011;35752;52.164;21.244;2023-01-20T10:58:42;52.67;;;27.17;;
49854;SDS011;35752;52.164;21.244;2023-01-20T11:01:12;49.50;;;26.33;;
49854;SDS011;35752;52.164;21.244;2023-01-20T11:03:43;50.67;;;27.50;;
49854;SDS011;35752;52.164;21.244;2023-01-20T11:06:21;53.28;;;27.08;;
49854;SDS011;35752;52.164;21.244;2023-01-20T11:08:51;56.20;;;28.05;;
49854;SDS011;35752;52.164;21.244;2023-01-20T11:11:22;60.67;;;28.77;;
49854;SDS011;35752;52.164;21.244;2023-01-20T11:13:49;57.72;;;27.27;;
49854;SDS011;35752;52.164;21.244;2023-01-20T11:16:20;67.10;;;30.42;;
49854;SDS011;35752;52.164;21.244;2023-01-20T11:19:01;61.33;;;30.05;;
49854;SDS011;35752;52.164;21.244;2023-01-20T11:21:31;59.42;;;30.65;;
49854;SDS011;35752;52.164;21.244;2023-01-20T11:24:00;50.70;;;26.70;;
49854;SDS011;35752;52.164;21.244;2023-01-20T11:26:29;52.33;;;26.05;;
49854;SDS011;35752;52.164;21.244;2023-01-20T11:29:22;51.80;;;26.42;;
49854;SDS011;35752;52.164;21.244;2023-01-20T11:31:53;58.85;;;29.20;;
49854;SDS011;35752;52.164;21.244;2023-01-20T11:34:27;59.42;;;28.77;;
49854;SDS011;35752;52.164;21.244;2023-01-20T11:39:33;57.35;;;29.42;;
49854;SDS011;35752;52.164;21.244;2023-01-20T11:44:58;56.63;;;30.10;;
49854;SDS011;35752;52.164;21.244;2023-01-20T11:47:35;64.18;;;30.02;;
49854;SDS011;35752;52.164;21.244;2023-01-20T11:52:43;59.47;;;30.67;;
49854;SDS011;35752;52.164;21.244;2023-01-20T11:57:37;62.47;;;32.20;;
49854;SDS011;35752;52.164;21.244;2023-01-20T12:11:23;68.53;;;34.20;;
49854;SDS011;35752;52.164;21.244;2023-01-20T12:16:59;64.68;;;32.80;;
49854;SDS011;35752;52.164;21.244;2023-01-20T12:22:23;60.35;;;29.85;;
49854;SDS011;35752;52.164;21.244;2023-01-20T12:25:04;57.95;;;29.05;;
49854;SDS011;35752;52.164;21.244;2023-01-20T12:31:23;56.88;;;27.75;;
49854;SDS011;35752;52.164;21.244;2023-01-20T12:33:50;53.25;;;26.98;;
49854;SDS011;35752;52.164;21.244;2023-01-20T12:44:19;49.40;;;25.27;;
49854;SDS011;35752;52.164;21.244;2023-01-20T12:46:57;42.17;;;22.25;;
49854;SDS011;35752;52.164;21.244;2023-01-20T12:50:35;43.20;;;22.20;;
49854;SDS011;35752;52.164;21.244;2023-01-20T13:04:10;41.85;;;22.73;;
49854;SDS011;35752;52.164;21.244;2023-01-20T13:15:08;42.30;;;21.15;;
49854;SDS011;35752;52.164;21.244;2023-01-20T13:17:58;49.80;;;23.00;;
49854;SDS011;35752;52.164;21.244;2023-01-20T13:20:37;43.80;;;20.70;;
49854;SDS011;35752;52.164;21.244;2023-01-20T13:23:05;40.67;;;20.73;;
49854;SDS011;35752;52.164;21.244;2023-01-20T13:25:34;39.63;;;19.83;;
49854;SDS011;35752;52.164;21.244;2023-01-20T13:28:02;36.67;;;19.77;;
49854;SDS011;35752;52.164;21.244;2023-01-20T13:30:42;31.50;;;18.75;;
49854;SDS011;35752;52.164;21.244;2023-01-20T13:33:36;34.67;;;19.90;;
49854;SDS011;35752;52.164;21.244;2023-01-20T13:36:18;38.55;;;19.25;;
49854;SDS011;35752;52.164;21.244;2023-01-20T13:38:46;32.10;;;17.83;;
49854;SDS011;35752;52.164;21.244;2023-01-20T13:41:45;38.55;;;21.20;;
49854;SDS011;35752;52.164;21.244;2023-01-20T13:44:37;36.67;;;19.33;;
49854;SDS011;35752;52.164;21.244;2023-01-20T13:47:06;35.58;;;19.33;;
49854;SDS011;35752;52.164;21.244;2023-01-20T13:52:12;34.83;;;18.30;;
49854;SDS011;35752;52.164;21.244;2023-01-20T13:54:44;31.27;;;18.33;;
49854;SDS011;35752;52.164;21.244;2023-01-20T13:59:47;35.08;;;18.88;;
49854;SDS011;35752;52.164;21.244;2023-01-20T14:02:17;35.92;;;19.15;;
49854;SDS011;35752;52.164;21.244;2023-01-20T14:04:47;34.22;;;19.08;;
49854;SDS011;35752;52.164;21.244;2023-01-20T14:07:23;35.42;;;19.80;;
49854;SDS011;35752;52.164;21.244;2023-01-20T14:09:55;35.33;;;18.60;;
49854;SDS011;35752;52.164;21.244;2023-01-20T14:12:22;32.58;;;17.48;;
49854;SDS011;35752;52.164;21.244;2023-01-20T14:14:48;32.90;;;20.15;;
49854;SDS011;35752;52.164;21.244;2023-01-20T14:17:17;33.50;;;18.30;;
49854;SDS011;35752;52.164;21.244;2023-01-20T14:19:48;34.05;;;19.05;;
49854;SDS011;35752;52.164;21.244;2023-01-20T14:22:17;33.63;;;20.08;;
49854;SDS011;35752;52.164;21.244;2023-01-20T14:24:47;30.92;;;17.63;;
49854;SDS011;35752;52.164;21.244;2023-01-20T14:27:23;27.60;;;16.05;;
49854;SDS011;35752;52.164;21.244;2023-01-20T14:32:50;29.80;;;16.67;;
49854;SDS011;35752;52.164;21.244;2023-01-20T14:35:27;27.45;;;14.95;;
49854;SDS011;35752;52.164;21.244;2023-01-20T14:37:58;29.40;;;16.95;;
49854;SDS011;35752;52.164;21.244;2023-01-20T14:40:28;29.52;;;17.17;;
49854;SDS011;35752;52.164;21.244;2023-01-20T14:42:59;32.47;;;17.08;;
49854;SDS011;35752;52.164;21.244;2023-01-20T14:45:27;30.25;;;18.13;;
49854;SDS011;35752;52.164;21.244;2023-01-20T14:47:55;31.08;;;18.67;;
49854;SDS011;35752;52.164;21.244;2023-01-20T14:50:23;34.65;;;20.00;;
49854;SDS011;35752;52.164;21.244;2023-01-20T14:52:49;36.40;;;21.17;;
49854;SDS011;35752;52.164;21.244;2023-01-20T14:58:00;39.85;;;21.42;;
49854;SDS011;35752;52.164;21.244;2023-01-20T15:00:32;33.47;;;18.65;;
49854;SDS011;35752;52.164;21.244;2023-01-20T15:05:57;38.35;;;21.42;;
49854;SDS011;35752;52.164;21.244;2023-01-20T15:11:13;44.47;;;22.55;;
49854;SDS011;35752;52.164;21.244;2023-01-20T15:16:29;32.63;;;16.77;;
49854;SDS011;35752;52.164;21.244;2023-01-20T15:24:36;28.58;;;16.40;;
49854;SDS011;35752;52.164;21.244;2023-01-20T15:27:15;29.65;;;16.75;;
49854;SDS011;35752;52.164;21.244;2023-01-20T15:32:51;30.95;;;16.35;;
49854;SDS011;35752;52.164;21.244;2023-01-20T15:35:18;31.23;;;18.17;;
49854;SDS011;35752;52.164;21.244;2023-01-20T15:37:47;33.83;;;17.70;;
49854;SDS011;35752;52.164;21.244;2023-01-20T15:40:14;36.03;;;20.50;;
49854;SDS011;35752;52.164;21.244;2023-01-20T15:42:42;32.42;;;17.63;;
49854;SDS011;35752;52.164;21.244;2023-01-20T15:45:10;33.17;;;17.90;;
49854;SDS011;35752;52.164;21.244;2023-01-20T15:47:37;38.42;;;19.60;;
49854;SDS011;35752;52.164;21.244;2023-01-20T15:50:04;32.67;;;18.23;;
49854;SDS011;35752;52.164;21.244;2023-01-20T15:52:36;36.53;;;19.30;;
49854;SDS011;35752;52.164;21.244;2023-01-20T15:55:02;36.47;;;20.70;;
49854;SDS011;35752;52.164;21.244;2023-01-20T15:57:28;32.22;;;19.25;;
49854;SDS011;35752;52.164;21.244;2023-01-20T15:59:54;39.30;;;22.95;;
49854;SDS011;35752;52.164;21.244;2023-01-20T16:02:20;45.22;;;25.73;;
49854;SDS011;35752;52.164;21.244;2023-01-20T16:04:47;34.55;;;19.58;;
49854;SDS011;35752;52.164;21.244;2023-01-20T16:07:14;33.63;;;19.70;;
49854;SDS011;35752;52.164;21.244;2023-01-20T16:09:41;38.33;;;19.65;;
49854;SDS011;35752;52.164;21.244;2023-01-20T16:12:11;32.33;;;18.58;;
49854;SDS011;35752;52.164;21.244;2023-01-20T16:14:41;30.92;;;18.35;;
49854;SDS011;35752;52.164;21.244;2023-01-20T16:17:14;30.73;;;16.25;;
49854;SDS011;35752;52.164;21.244;2023-01-20T16:19:42;28.85;;;18.10;;
49854;SDS011;35752;52.164;21.244;2023-01-20T16:22:08;26.60;;;17.33;;
49854;SDS011;35752;52.164;21.244;2023-01-20T16:24:35;27.20;;;17.45;;
49854;SDS011;35752;52.164;21.244;2023-01-20T16:27:02;26.08;;;17.75;;
49854;SDS011;35752;52.164;21.244;2023-01-20T16:29:37;24.80;;;15.75;;
49854;SDS011;35752;52.164;21.244;2023-01-20T16:32:03;25.38;;;15.73;;
49854;SDS011;35752;52.164;21.244;2023-01-20T16:34:29;22.73;;;13.95;;
49854;SDS011;35752;52.164;21.244;2023-01-20T16:36:54;24.33;;;15.48;;
49854;SDS011;35752;52.164;21.244;2023-01-20T16:39:20;23.42;;;14.38;;
49854;SDS011;35752;52.164;21.244;2023-01-20T16:41:46;22.48;;;13.93;;
49854;SDS011;35752;52.164;21.244;2023-01-20T16:44:15;23.13;;;13.85;;
49854;SDS011;35752;52.164;21.244;2023-01-20T16:46:40;22.65;;;13.73;;